createdAt,value
2019-02-07T00:04:15.395Z,-2.80
2019-02-07T00:09:01.391Z,-2.80
2019-02-07T00:13:47.461Z,-2.70
2019-02-07T00:18:33.462Z,-2.70
2019-02-07T00:23:19.545Z,-2.90
2019-02-07T00:28:05.496Z,-3.00
2019-02-07T00:32:51.490Z,-3.00
2019-02-07T00:37:37.334Z,-3.00
2019-02-07T00:42:23.159Z,-3.00
2019-02-07T00:47:08.926Z,-3.20
2019-02-07T00:51:55.585Z,-3.30
2019-02-07T00:56:41.858Z,-3.30
2019-02-07T01:01:28.107Z,-3.30
2019-02-07T01:06:14.388Z,-3.30
2019-02-07T01:11:00.580Z,-3.30
2019-02-07T01:15:47.160Z,-3.20
2019-02-07T01:20:32.993Z,-3.30
2019-02-07T01:25:20.730Z,-3.20
2019-02-07T01:30:08.403Z,-3.20
2019-02-07T01:34:54.211Z,-3.20
2019-02-07T01:39:40.083Z,-3.20
2019-02-07T01:44:25.919Z,-3.10
2019-02-07T01:49:11.860Z,-3.30
2019-02-07T01:53:58.032Z,-3.30
2019-02-07T01:58:44.111Z,-3.40
2019-02-07T02:03:30.281Z,-3.50
2019-02-07T02:08:16.286Z,-3.60
2019-02-07T02:13:02.698Z,-3.70
2019-02-07T02:17:49.208Z,-3.80
2019-02-07T02:22:35.291Z,-3.80
2019-02-07T02:27:21.210Z,-3.80
2019-02-07T02:32:07.334Z,-3.90
2019-02-07T02:36:53.231Z,-3.90
2019-02-07T02:41:39.247Z,-4.00
2019-02-07T02:46:25.092Z,-3.90
2019-02-07T02:51:11.305Z,-3.80
2019-02-07T02:55:59.819Z,-3.80
2019-02-07T03:01:14.239Z,-3.80
2019-02-07T03:06:37.537Z,-3.70
2019-02-07T03:11:51.973Z,-3.70
2019-02-07T03:16:55.365Z,-3.70
2019-02-07T03:21:59.388Z,-3.70
2019-02-07T03:26:56.522Z,-3.60
2019-02-07T03:31:52.304Z,-3.60
2019-02-07T03:36:56.987Z,-3.70
2019-02-07T03:42:01.545Z,-3.70
2019-02-07T03:47:12.235Z,-3.70
2019-02-07T03:52:23.308Z,-3.70
2019-02-07T03:57:26.824Z,-3.70
2019-02-07T04:02:31.634Z,-3.60
2019-02-07T04:07:42.658Z,-3.50
2019-02-07T04:12:47.075Z,-3.50
2019-02-07T04:17:55.058Z,-3.50
2019-02-07T04:22:53.042Z,-3.50
2019-02-07T04:27:52.824Z,-3.40
2019-02-07T04:33:16.692Z,-3.40
2019-02-07T04:38:21.470Z,-3.40
2019-02-07T04:43:25.285Z,-3.50
2019-02-07T04:48:32.863Z,-3.50
2019-02-07T04:53:52.966Z,-3.50
2019-02-07T04:58:56.732Z,-3.40
2019-02-07T05:04:04.469Z,-3.30
2019-02-07T05:08:58.431Z,-3.40
2019-02-07T05:14:02.004Z,-3.30
2019-02-07T05:19:06.996Z,-3.40
2019-02-07T05:24:16.234Z,-3.40
2019-02-07T05:29:21.124Z,-3.40
2019-02-07T05:34:32.322Z,-3.50
2019-02-07T05:39:35.372Z,-3.60
2019-02-07T05:44:42.979Z,-3.70
2019-02-07T05:49:47.631Z,-3.80
2019-02-07T05:54:58.439Z,-3.80
2019-02-07T06:00:06.968Z,-3.80
2019-02-07T06:05:06.502Z,-3.80
2019-02-07T06:10:13.977Z,-3.70
2019-02-07T06:15:30.757Z,-3.60
2019-02-07T06:20:34.058Z,-3.60
2019-02-07T06:25:38.761Z,-3.50
2019-02-07T06:30:43.326Z,-3.40
2019-02-07T06:35:45.590Z,-3.50
2019-02-07T06:40:48.966Z,-3.40
2019-02-07T06:45:52.087Z,-3.40
2019-02-07T06:51:10.002Z,-3.40
2019-02-07T06:56:15.045Z,-3.40
2019-02-07T07:01:34.878Z,-3.50
2019-02-07T07:06:34.034Z,-3.40
2019-02-07T07:11:38.763Z,-3.30
2019-02-07T07:16:40.355Z,-3.30
2019-02-07T07:21:51.126Z,-3.40
2019-02-07T07:26:55.597Z,-3.20
2019-02-07T07:32:00.159Z,-3.30
2019-02-07T07:37:05.813Z,-3.20
2019-02-07T07:42:08.993Z,-3.30
2019-02-07T07:47:19.799Z,-3.20
2019-02-07T07:52:29.587Z,-2.90
2019-02-07T07:57:32.762Z,-2.40
2019-02-07T08:02:32.763Z,-2.30
2019-02-07T08:07:36.604Z,-2.70
2019-02-07T08:12:39.084Z,-2.50
2019-02-07T08:17:47.688Z,-2.60
2019-02-07T08:23:07.856Z,-2.50
2019-02-07T08:28:12.684Z,-2.60
2019-02-07T08:33:17.174Z,-2.50
2019-02-07T08:38:33.946Z,-2.50
2019-02-07T08:43:32.954Z,-2.30
2019-02-07T08:48:56.409Z,-2.20
2019-02-07T08:53:59.242Z,-1.40
2019-02-07T08:59:05.333Z,-1.10
2019-02-07T09:04:19.085Z,-1.10
2019-02-07T09:09:19.631Z,-1.50
2019-02-07T09:14:23.578Z,-1.40
2019-02-07T09:19:26.888Z,-0.80
2019-02-07T09:24:30.242Z,-0.60
2019-02-07T09:29:33.796Z,-0.30
2019-02-07T09:34:44.511Z,-0.10
2019-02-07T09:39:56.339Z,-0.80
2019-02-07T09:44:59.967Z,-0.10
2019-02-07T09:50:04.710Z,0.90
2019-02-07T09:55:19.242Z,1.10
2019-02-07T10:00:12.590Z,1.40
2019-02-07T10:05:16.110Z,0.70
2019-02-07T10:10:33.214Z,0.10
2019-02-07T10:15:36.963Z,0.60
2019-02-07T10:20:56.869Z,0.40
2019-02-07T10:26:00.152Z,0.10
2019-02-07T10:30:59.893Z,0.00
2019-02-07T10:36:07.800Z,0.10
2019-02-07T10:41:16.533Z,0.30
2019-02-07T10:46:21.694Z,0.90
2019-02-07T10:51:20.443Z,1.80
2019-02-07T10:56:28.673Z,2.70
2019-02-07T11:01:27.070Z,3.30
2019-02-07T11:06:38.027Z,4.20
2019-02-07T11:11:48.670Z,4.80
2019-02-07T11:16:53.580Z,4.60
2019-02-07T11:22:10.548Z,4.70
2019-02-07T11:27:15.225Z,4.30
2019-02-07T11:32:17.238Z,4.00
2019-02-07T11:37:20.794Z,4.10
2019-02-07T11:42:33.144Z,4.40
2019-02-07T11:47:44.465Z,4.40
2019-02-07T11:52:54.295Z,3.00
2019-02-07T11:57:48.487Z,2.20
2019-02-07T12:02:51.936Z,2.60
2019-02-07T12:07:56.786Z,3.70
2019-02-07T12:12:55.385Z,3.90
2019-02-07T12:17:59.959Z,4.10
2019-02-07T12:23:10.503Z,4.10
2019-02-07T12:28:18.470Z,3.90
2019-02-07T12:33:22.007Z,4.00
2019-02-07T12:38:26.009Z,4.00
2019-02-07T12:43:39.909Z,3.90
2019-02-07T12:48:43.067Z,3.80
2019-02-07T12:53:50.581Z,3.50
2019-02-07T12:58:54.174Z,3.40
2019-02-07T13:03:57.815Z,2.80
2019-02-07T13:08:58.369Z,2.80
2019-02-07T13:14:01.895Z,2.70
2019-02-07T13:19:12.599Z,2.80
2019-02-07T13:24:23.256Z,2.40
2019-02-07T13:29:40.199Z,2.80
2019-02-07T13:34:43.411Z,3.00
2019-02-07T13:39:46.861Z,3.20
2019-02-07T13:45:00.466Z,3.00
2019-02-07T13:50:20.225Z,2.70
2019-02-07T13:55:24.721Z,2.50
2019-02-07T14:00:35.223Z,1.90
2019-02-07T14:05:38.729Z,1.80
2019-02-07T14:10:48.360Z,1.60
2019-02-07T14:15:59.864Z,1.80
2019-02-07T14:21:03.074Z,1.60
2019-02-07T14:26:07.804Z,1.50
2019-02-07T14:31:11.535Z,1.50
2019-02-07T14:36:28.757Z,1.20
2019-02-07T14:41:29.340Z,1.10
2019-02-07T14:46:33.968Z,0.80
2019-02-07T14:51:20.047Z,0.90
2019-02-07T14:56:06.204Z,0.90
2019-02-07T15:00:52.005Z,0.80
2019-02-07T15:05:38.208Z,0.90
2019-02-07T15:10:24.275Z,0.90
2019-02-07T15:15:12.280Z,0.60
2019-02-07T15:19:58.396Z,0.70
2019-02-07T15:24:44.333Z,0.90
2019-02-07T15:29:30.654Z,0.60
2019-02-07T15:34:17.107Z,0.50
2019-02-07T15:39:04.942Z,0.40
2019-02-07T15:43:50.855Z,0.40
2019-02-07T15:48:36.847Z,0.60
2019-02-07T15:53:24.066Z,0.60
2019-02-07T15:58:10.135Z,0.70
2019-02-07T16:03:01.050Z,1.00
2019-02-07T16:07:47.600Z,1.10
2019-02-07T16:12:33.535Z,1.00
2019-02-07T16:17:19.373Z,0.90
2019-02-07T16:22:05.659Z,0.90
2019-02-07T16:26:51.875Z,0.80
2019-02-07T16:31:38.123Z,0.60
2019-02-07T16:36:24.050Z,0.60
2019-02-07T16:41:10.785Z,0.60
2019-02-07T16:45:56.929Z,0.60
2019-02-07T16:50:43.246Z,0.60
2019-02-07T16:55:29.933Z,0.70
2019-02-07T17:00:26.182Z,0.60
2019-02-07T17:05:14.241Z,0.60
2019-02-07T17:10:00.321Z,0.60
2019-02-07T17:14:46.455Z,0.60
2019-02-07T17:19:33.067Z,0.60
2019-02-07T17:24:19.466Z,0.60
2019-02-07T17:29:05.586Z,0.60
2019-02-07T17:33:51.547Z,0.70
2019-02-07T17:38:37.902Z,0.70
2019-02-07T17:43:24.246Z,0.70
2019-02-07T17:48:10.292Z,0.80
2019-02-07T17:52:56.456Z,0.80
2019-02-07T17:57:42.518Z,0.80
2019-02-07T18:02:28.588Z,0.80
2019-02-07T18:07:14.837Z,0.80
2019-02-07T18:12:00.815Z,0.90
2019-02-07T18:16:46.631Z,1.20
2019-02-07T18:21:34.361Z,1.10
2019-02-07T18:26:20.184Z,0.80
2019-02-07T18:31:06.372Z,0.80
2019-02-07T18:35:52.415Z,0.80
2019-02-07T18:40:38.803Z,0.80
2019-02-07T18:45:25.053Z,0.80
2019-02-07T18:50:16.058Z,0.80
2019-02-07T18:55:02.097Z,0.70
2019-02-07T18:59:48.016Z,0.70
2019-02-07T19:04:34.108Z,0.80
2019-02-07T19:09:21.549Z,0.90
2019-02-07T19:14:08.124Z,1.00
2019-02-07T19:18:54.406Z,0.90
2019-02-07T19:23:40.926Z,0.90
2019-02-07T19:28:27.399Z,0.80
2019-02-07T19:33:14.217Z,0.70
2019-02-07T19:38:00.525Z,0.70
2019-02-07T19:42:46.949Z,0.70
2019-02-07T19:47:33.410Z,0.80
2019-02-07T19:52:19.539Z,0.80
2019-02-07T19:57:06.830Z,0.80
2019-02-07T20:01:53.155Z,0.80
2019-02-07T20:06:41.576Z,0.80
2019-02-07T20:11:27.795Z,0.80
2019-02-07T20:16:14.080Z,0.80
2019-02-07T20:21:00.138Z,0.80
2019-02-07T20:25:46.419Z,0.80
2019-02-07T20:30:34.670Z,0.80
2019-02-07T20:35:21.193Z,0.80
2019-02-07T20:40:09.710Z,2.30
2019-02-07T20:44:55.687Z,2.30
2019-02-07T20:49:41.850Z,1.60
2019-02-07T20:54:28.300Z,1.10
2019-02-07T20:59:15.007Z,0.90
2019-02-07T21:04:01.142Z,0.80
2019-02-07T21:08:47.197Z,0.80
2019-02-07T21:13:33.454Z,0.80
2019-02-07T21:18:20.079Z,0.80
2019-02-07T21:23:06.903Z,2.00
2019-02-07T21:27:53.138Z,1.50
2019-02-07T21:32:39.174Z,1.20
2019-02-07T21:37:25.747Z,1.10
2019-02-07T21:42:12.066Z,1.20
2019-02-07T21:46:58.570Z,1.30
2019-02-07T21:51:44.578Z,1.30
2019-02-07T21:56:30.829Z,1.50
2019-02-07T22:01:17.069Z,1.50
2019-02-07T22:06:03.376Z,1.40
2019-02-07T22:10:49.261Z,1.30
2019-02-07T22:15:35.574Z,1.20
2019-02-07T22:20:23.326Z,1.10
2019-02-07T22:25:09.458Z,1.10
2019-02-07T22:29:55.798Z,1.10
2019-02-07T22:34:42.697Z,1.10
2019-02-07T22:39:29.231Z,1.20
2019-02-07T22:44:15.630Z,1.20
2019-02-07T22:49:02.120Z,1.10
2019-02-07T22:53:48.453Z,1.00
2019-02-07T22:58:34.966Z,1.10
2019-02-07T23:03:21.224Z,1.10
2019-02-07T23:08:07.544Z,1.10
2019-02-07T23:12:53.563Z,1.10
2019-02-07T23:17:40.202Z,1.30
2019-02-07T23:22:26.576Z,1.60
2019-02-07T23:27:12.339Z,1.60
2019-02-07T23:31:58.273Z,1.60
2019-02-07T23:36:44.213Z,1.50
2019-02-07T23:41:30.151Z,1.50
2019-02-07T23:46:16.194Z,1.50
2019-02-07T23:51:02.609Z,1.50
2019-02-07T23:55:48.342Z,1.50
